Time;durP1;ratioP1;P1;durP2;ratioP2;P2;SDS_P1;SDS_P2;PMS_P1;PMS_P2;Temp;Humidity;BMP_temperature;BMP_pressure;BME280_temperature;BME280_humidity;BME280_pressure;Samples;Min_cycle;Max_cycle;Signal;HPM_P1;HPM_P2
2021/06/03 00:02:05;;;;;;;6.40;5.60;;;20.40;65.20;;;;;;5035177;28;20534;-78
2021/06/03 00:04:33;;;;;;;6.37;5.77;;;20.40;65.00;;;;;;5036233;28;20487;-78
2021/06/03 00:06:59;;;;;;;6.10;5.50;;;20.40;65.20;;;;;;5035156;28;20854;-77
2021/06/03 00:09:26;;;;;;;6.33;4.90;;;20.40;64.60;;;;;;5033958;28;20213;-76
2021/06/03 00:11:52;;;;;;;6.43;5.82;;;20.40;64.60;;;;;;5033798;28;20563;-77
2021/06/03 00:14:19;;;;;;;5.90;5.30;;;20.40;65.00;;;;;;5034368;28;20201;-77
2021/06/03 00:16:45;;;;;;;7.43;5.60;;;20.40;65.70;;;;;;5034102;28;20206;-77
2021/06/03 00:19:12;;;;;;;8.18;6.70;;;20.30;66.40;;;;;;5034523;28;20443;-77
2021/06/03 00:21:42;;;;;;;7.85;6.72;;;20.40;66.80;;;;;;5035739;28;20318;-78
2021/06/03 00:24:08;;;;;;;9.17;6.83;;;20.30;67.20;;;;;;5034209;28;20283;-77
2021/06/03 00:26:35;;;;;;;8.63;6.40;;;20.30;68.20;;;;;;5033813;28;20481;-77
2021/06/03 00:29:02;;;;;;;6.20;5.70;;;20.30;67.90;;;;;;5033767;28;20852;-77
2021/06/03 00:31:28;;;;;;;5.93;5.33;;;20.30;67.50;;;;;;5033360;28;20566;-77
2021/06/03 00:33:54;;;;;;;6.70;5.50;;;20.30;67.70;;;;;;5035721;28;20869;-79
2021/06/03 00:36:21;;;;;;;6.63;6.00;;;20.20;68.00;;;;;;5034954;28;20462;-78
2021/06/03 00:38:48;;;;;;;8.03;6.60;;;20.10;68.60;;;;;;5034363;28;20709;-79
2021/06/03 00:41:19;;;;;;;7.95;6.90;;;20.00;68.40;;;;;;5033945;28;20551;-79
2021/06/03 00:43:45;;;;;;;9.35;7.68;;;19.80;69.40;;;;;;5034681;28;20287;-80
2021/06/03 00:46:12;;;;;;;7.35;6.43;;;19.70;70.90;;;;;;5034123;28;20250;-78
2021/06/03 00:48:39;;;;;;;10.05;7.13;;;19.70;70.30;;;;;;5034542;28;20339;-80
2021/06/03 00:51:07;;;;;;;6.93;6.25;;;19.70;71.90;;;;;;5034973;28;20315;-80
2021/06/03 00:53:34;;;;;;;7.25;6.57;;;19.60;71.60;;;;;;5033827;28;20239;-80
2021/06/03 00:56:03;;;;;;;8.55;7.75;;;19.60;71.10;;;;;;5034545;28;20200;-82
2021/06/03 00:58:29;;;;;;;9.38;7.70;;;19.60;72.50;;;;;;5035193;28;20265;-83
2021/06/03 01:00:57;;;;;;;8.93;7.20;;;19.50;72.60;;;;;;5035813;28;20231;-81
2021/06/03 01:03:25;;;;;;;9.40;6.95;;;19.50;72.70;;;;;;5036144;28;20204;-83
2021/06/03 01:05:55;;;;;;;7.63;6.82;;;19.50;72.60;;;;;;5035235;28;20227;-81
2021/06/03 01:08:24;;;;;;;9.07;7.10;;;19.40;72.80;;;;;;5035829;28;20658;-82
2021/06/03 01:10:55;;;;;;;8.18;6.85;;;19.40;73.90;;;;;;5038349;28;20200;-80
2021/06/03 01:13:34;;;;;;;8.05;6.90;;;19.30;73.90;;;;;;5043472;28;20303;-82
2021/06/03 01:16:04;;;;;;;8.02;7.30;;;19.20;74.40;;;;;;5038310;28;20251;-83
2021/06/03 01:18:32;;;;;;;8.45;6.55;;;19.20;74.50;;;;;;5038409;28;20664;-80
2021/06/03 01:21:02;;;;;;;7.38;6.30;;;19.20;74.60;;;;;;5038618;28;20228;-80
2021/06/03 01:23:33;;;;;;;6.20;5.60;;;19.10;74.80;;;;;;5041363;28;20737;-82
2021/06/03 01:26:02;;;;;;;6.60;5.90;;;19.10;74.40;;;;;;5042198;28;20310;-82
2021/06/03 01:28:28;;;;;;;6.57;5.97;;;19.00;74.70;;;;;;5041271;28;20636;-78
2021/06/03 01:30:57;;;;;;;6.60;6.00;;;19.00;75.00;;;;;;5036951;28;20295;-77
2021/06/03 01:33:26;;;;;;;6.60;5.75;;;18.80;75.60;;;;;;5037007;28;20679;-80
2021/06/03 01:35:55;;;;;;;6.00;5.50;;;18.70;76.10;;;;;;5036721;28;20215;-79
2021/06/03 01:38:30;;;;;;;8.63;6.60;;;18.70;76.20;;;;;;5034688;28;20311;-79
2021/06/03 01:40:58;;;;;;;7.03;6.15;;;18.80;76.10;;;;;;5036936;28;20223;-78
2021/06/03 01:43:28;;;;;;;7.22;6.50;;;18.80;77.80;;;;;;5037483;28;20290;-77
2021/06/03 01:45:56;;;;;;;8.55;6.40;;;18.80;78.60;;;;;;5037089;28;20216;-79
2021/06/03 01:48:23;;;;;;;7.60;5.78;;;18.80;78.40;;;;;;5037298;28;20210;-78
2021/06/03 01:50:52;;;;;;;6.90;6.20;;;18.70;79.00;;;;;;5035998;28;20772;-79
2021/06/03 01:53:20;;;;;;;6.65;5.90;;;18.70;79.80;;;;;;5035935;28;20204;-77
2021/06/03 01:55:47;;;;;;;6.60;6.00;;;18.60;80.10;;;;;;5035743;28;20296;-78
2021/06/03 01:58:14;;;;;;;6.55;5.95;;;18.50;80.90;;;;;;5033224;28;20200;-76
2021/06/03 02:00:44;;;;;;;9.50;5.40;;;18.60;82.10;;;;;;5032198;28;20299;-77
2021/06/03 02:03:10;;;;;;;7.07;5.50;;;18.50;82.10;;;;;;5032430;28;20299;-76
2021/06/03 02:05:36;;;;;;;6.90;6.20;;;18.40;83.00;;;;;;5031956;28;20238;-77
2021/06/03 02:08:03;;;;;;;7.45;5.90;;;18.40;83.50;;;;;;5032161;28;20208;-77
2021/06/03 02:10:30;;;;;;;6.28;5.38;;;18.40;82.70;;;;;;5031866;28;20249;-77
2021/06/03 02:13:01;;;;;;;7.10;6.40;;;18.30;83.00;;;;;;5032386;28;20585;-77
2021/06/03 02:15:33;;;;;;;6.35;5.75;;;18.30;83.90;;;;;;5031866;28;20200;-76
2021/06/03 02:18:04;;;;;;;7.18;5.03;;;18.40;84.90;;;;;;5033848;28;20294;-83
2021/06/03 02:20:33;;;;;;;6.03;5.25;;;18.30;85.90;;;;;;5032507;28;20203;-77
2021/06/03 02:22:59;;;;;;;6.55;5.90;;;18.00;87.20;;;;;;5012674;28;20224;-75
2021/06/03 02:25:28;;;;;;;5.90;5.40;;;17.90;87.20;;;;;;5012589;28;20292;-75
2021/06/03 02:27:57;;;;;;;6.50;5.90;;;18.00;88.60;;;;;;5013058;28;20231;-77
2021/06/03 02:30:24;;;;;;;7.40;5.78;;;18.00;88.90;;;;;;5012589;28;20291;-76
2021/06/03 02:32:52;;;;;;;6.80;6.05;;;18.10;88.10;;;;;;5012375;28;20264;-77
2021/06/03 02:35:20;;;;;;;7.65;6.30;;;18.20;89.00;;;;;;5013470;28;20235;-76
2021/06/03 02:37:48;;;;;;;7.38;6.68;;;18.20;89.80;;;;;;5012233;28;20761;-77
2021/06/03 02:40:16;;;;;;;6.72;6.13;;;18.20;89.80;;;;;;5012223;28;20905;-76
2021/06/03 02:42:44;;;;;;;7.50;6.32;;;18.20;90.00;;;;;;5014749;28;20665;-76
2021/06/03 02:45:13;;;;;;;6.97;6.28;;;18.30;90.00;;;;;;5016045;28;20299;-76
2021/06/03 02:47:40;;;;;;;7.00;6.30;;;18.30;90.10;;;;;;5015801;28;20594;-76
2021/06/03 02:50:09;;;;;;;6.15;5.55;;;18.40;90.50;;;;;;5015834;28;20208;-76
2021/06/03 02:52:37;;;;;;;6.85;6.15;;;18.40;90.40;;;;;;5016434;28;20229;-77
2021/06/03 02:55:05;;;;;;;6.72;6.10;;;18.50;90.80;;;;;;5016596;28;20625;-77
2021/06/03 02:57:32;;;;;;;6.32;5.72;;;18.60;91.10;;;;;;5016425;28;20201;-78
2021/06/03 02:59:58;;;;;;;5.72;5.18;;;18.50;91.00;;;;;;5016675;28;20295;-77
2021/06/03 03:02:24;;;;;;;8.55;6.35;;;18.50;91.30;;;;;;5016544;28;20350;-78
2021/06/03 03:04:51;;;;;;;7.72;5.90;;;18.50;91.40;;;;;;5015621;28;20291;-75
2021/06/03 03:07:17;;;;;;;5.82;5.32;;;18.50;91.40;;;;;;5015677;28;20224;-75
2021/06/03 03:09:45;;;;;;;7.13;6.10;;;18.40;90.90;;;;;;5017007;28;20200;-78
2021/06/03 03:12:12;;;;;;;8.05;7.25;;;18.20;91.20;;;;;;5018776;28;20236;-78
2021/06/03 03:14:38;;;;;;;6.35;5.78;;;18.20;91.30;;;;;;5020054;28;20273;-77
2021/06/03 03:17:05;;;;;;;7.10;6.10;;;18.20;91.30;;;;;;5020159;28;20616;-78
2021/06/03 03:19:32;;;;;;;7.45;6.22;;;18.20;91.60;;;;;;5020185;28;20311;-78
2021/06/03 03:21:59;;;;;;;7.03;6.10;;;18.30;91.50;;;;;;5018953;28;20229;-78
2021/06/03 03:24:25;;;;;;;7.28;6.57;;;18.10;92.00;;;;;;5018798;28;20200;-78
2021/06/03 03:26:53;;;;;;;7.45;6.75;;;18.00;92.00;;;;;;5018281;28;20762;-77
2021/06/03 03:29:19;;;;;;;7.55;6.30;;;17.80;92.50;;;;;;5018276;28;20298;-78
2021/06/03 03:31:46;;;;;;;7.60;6.32;;;17.80;93.10;;;;;;5018114;28;20251;-77
2021/06/03 03:34:12;;;;;;;7.60;6.40;;;17.80;93.30;;;;;;5019086;28;20308;-78
2021/06/03 03:36:38;;;;;;;7.43;6.18;;;17.70;93.50;;;;;;5019294;28;20210;-77
2021/06/03 03:39:05;;;;;;;6.93;6.28;;;17.60;94.10;;;;;;5020081;28;20291;-78
2021/06/03 03:41:32;;;;;;;6.72;5.85;;;17.60;94.60;;;;;;5020113;28;20225;-77
2021/06/03 03:44:00;;;;;;;7.30;6.60;;;17.80;94.70;;;;;;5021002;28;20230;-78
2021/06/03 03:46:26;;;;;;;8.23;7.35;;;17.90;94.50;;;;;;5020605;28;20227;-77
2021/06/03 03:48:52;;;;;;;8.50;6.30;;;18.00;94.20;;;;;;5021122;28;20631;-77
2021/06/03 03:51:19;;;;;;;7.30;5.95;;;18.20;94.60;;;;;;5020604;28;20292;-77
2021/06/03 03:53:45;;;;;;;7.72;6.93;;;18.30;94.00;;;;;;5020841;28;20617;-78
2021/06/03 03:56:12;;;;;;;6.95;6.25;;;18.40;94.50;;;;;;5020501;28;20286;-76
2021/06/03 03:58:40;;;;;;;6.90;6.20;;;18.40;94.60;;;;;;5020535;28;20219;-78
2021/06/03 04:01:08;;;;;;;7.80;7.00;;;18.40;94.20;;;;;;5020396;28;20232;-78
2021/06/03 04:03:34;;;;;;;6.90;6.15;;;18.30;94.50;;;;;;5021013;28;20205;-78
2021/06/03 04:06:01;;;;;;;7.03;6.32;;;18.10;94.80;;;;;;5020967;28;20299;-78
2021/06/03 04:08:27;;;;;;;7.00;6.30;;;18.30;95.40;;;;;;5020633;28;20256;-78
2021/06/03 04:10:54;;;;;;;7.38;5.95;;;18.30;95.80;;;;;;5020047;28;20240;-78
2021/06/03 04:13:21;;;;;;;6.72;5.97;;;18.50;95.50;;;;;;5019733;28;20232;-78
2021/06/03 04:15:47;;;;;;;7.00;6.30;;;18.60;95.20;;;;;;5019659;28;20236;-78
2021/06/03 04:18:15;;;;;;;7.22;6.13;;;18.50;95.40;;;;;;5019909;28;20220;-77
2021/06/03 04:20:42;;;;;;;7.35;6.65;;;18.60;95.50;;;;;;5019221;28;20205;-78
2021/06/03 04:23:08;;;;;;;6.60;5.95;;;18.60;95.80;;;;;;5019089;28;20237;-78
2021/06/03 04:25:34;;;;;;;7.20;5.93;;;18.60;96.10;;;;;;5020069;28;20205;-78
2021/06/03 04:28:01;;;;;;;5.90;5.40;;;18.60;96.50;;;;;;5019632;28;20315;-78
2021/06/03 04:30:28;;;;;;;6.20;5.60;;;18.60;97.00;;;;;;5019443;28;20638;-78
2021/06/03 04:32:55;;;;;;;6.45;5.85;;;18.60;97.00;;;;;;5019169;28;20268;-78
2021/06/03 04:35:24;;;;;;;6.72;6.13;;;18.60;97.20;;;;;;5019977;28;20243;-78
2021/06/03 04:37:51;;;;;;;6.63;6.03;;;18.60;97.40;;;;;;5019724;28;20296;-78
2021/06/03 04:40:19;;;;;;;6.63;6.03;;;18.70;97.40;;;;;;5019108;28;20208;-77
2021/06/03 04:42:46;;;;;;;7.07;6.38;;;18.50;97.70;;;;;;5019833;28;20229;-78
2021/06/03 04:45:13;;;;;;;7.63;6.93;;;18.40;98.60;;;;;;5018626;28;20308;-78
2021/06/03 04:47:40;;;;;;;7.00;6.30;;;18.30;98.70;;;;;;5019073;28;20288;-78
2021/06/03 04:50:08;;;;;;;7.70;6.40;;;18.20;99.10;;;;;;5018734;28;20302;-78
2021/06/03 04:52:36;;;;;;;7.07;6.38;;;18.10;99.60;;;;;;5018775;28;20264;-77
2021/06/03 04:55:06;;;;;;;7.38;6.32;;;18.10;99.90;;;;;;5018826;28;20207;-78
2021/06/03 04:57:33;;;;;;;6.30;5.70;;;18.00;99.90;;;;;;5018860;28;20201;-78
2021/06/03 05:00:00;;;;;;;6.70;6.00;;;18.00;99.90;;;;;;5018339;28;20208;-77
2021/06/03 05:02:26;;;;;;;7.50;6.80;;;18.00;99.90;;;;;;5018945;28;20311;-78
2021/06/03 05:04:53;;;;;;;8.25;6.43;;;18.00;99.90;;;;;;5018165;28;20213;-78
2021/06/03 05:07:20;;;;;;;7.07;6.38;;;18.20;99.90;;;;;;5018433;28;20319;-77
2021/06/03 05:09:48;;;;;;;8.18;6.38;;;18.30;99.90;;;;;;5017708;28;20276;-78
2021/06/03 05:12:15;;;;;;;13.20;6.68;;;18.40;99.90;;;;;;5018588;28;20220;-78
2021/06/03 05:14:41;;;;;;;7.32;6.07;;;18.50;99.90;;;;;;5017366;28;20205;-77
2021/06/03 05:17:08;;;;;;;7.65;6.95;;;18.70;99.90;;;;;;5018271;28;20296;-78
2021/06/03 05:19:36;;;;;;;7.05;6.22;;;18.80;99.90;;;;;;5017661;28;20287;-78
2021/06/03 05:22:03;;;;;;;8.07;7.25;;;18.90;99.90;;;;;;5018127;28;20224;-78
2021/06/03 05:24:29;;;;;;;7.15;6.45;;;19.00;99.20;;;;;;5017358;28;20295;-78
2021/06/03 05:26:58;;;;;;;8.13;7.32;;;19.00;99.70;;;;;;5017506;28;20315;-77
2021/06/03 05:29:24;;;;;;;7.00;6.30;;;18.90;99.60;;;;;;5017263;28;20291;-78
2021/06/03 05:31:52;;;;;;;7.90;7.10;;;18.70;99.90;;;;;;5016474;28;20323;-77
2021/06/03 05:34:19;;;;;;;8.15;6.80;;;18.70;99.90;;;;;;5016892;28;20205;-77
2021/06/03 05:36:45;;;;;;;7.25;6.50;;;18.80;99.90;;;;;;5016974;28;20729;-78
2021/06/03 05:39:12;;;;;;;6.80;6.15;;;18.80;99.90;;;;;;5017147;28;20209;-78
2021/06/03 05:41:40;;;;;;;7.75;6.95;;;18.70;99.90;;;;;;5016603;28;20307;-78
2021/06/03 05:44:09;;;;;;;9.77;7.32;;;18.70;99.90;;;;;;5017657;28;20291;-78
2021/06/03 05:46:36;;;;;;;8.43;7.07;;;18.80;99.90;;;;;;5017761;28;20311;-78
2021/06/03 05:49:03;;;;;;;7.60;6.80;;;18.80;99.90;;;;;;5017207;28;20209;-77
2021/06/03 05:51:30;;;;;;;7.97;7.18;;;18.80;99.90;;;;;;5017625;28;20221;-78
2021/06/03 05:53:57;;;;;;;7.65;6.90;;;18.90;99.90;;;;;;5017500;28;20685;-78
2021/06/03 05:56:25;;;;;;;7.30;6.65;;;19.00;99.90;;;;;;5018731;28;20200;-78
2021/06/03 05:58:51;;;;;;;8.32;7.20;;;19.20;99.90;;;;;;5018575;28;20211;-78
2021/06/03 06:01:19;;;;;;;7.90;7.10;;;19.50;99.90;;;;;;5017614;28;20225;-78
2021/06/03 06:03:49;;;;;;;8.23;7.43;;;19.70;99.70;;;;;;5017939;28;20212;-78
2021/06/03 06:06:24;;;;;;;8.02;7.22;;;19.80;99.30;;;;;;5016252;28;20453;-78
2021/06/03 06:08:52;;;;;;;8.38;7.57;;;19.90;99.20;;;;;;5015597;28;20216;-78
2021/06/03 06:11:19;;;;;;;7.43;6.30;;;20.00;98.90;;;;;;5016350;28;20237;-78
2021/06/03 06:13:46;;;;;;;7.82;7.10;;;20.10;98.70;;;;;;5016449;28;21002;-78
2021/06/03 06:16:13;;;;;;;8.30;7.20;;;20.20;98.90;;;;;;5017851;28;20311;-78
2021/06/03 06:18:42;;;;;;;7.20;6.60;;;20.10;99.00;;;;;;5021063;28;20453;-78
2021/06/03 06:21:09;;;;;;;7.85;6.70;;;20.10;99.40;;;;;;5020090;28;20225;-78
2021/06/03 06:23:36;;;;;;;7.82;6.50;;;20.10;99.50;;;;;;5021149;28;20673;-78
2021/06/03 06:26:04;;;;;;;9.27;7.03;;;20.10;99.90;;;;;;5022199;28;20208;-78
2021/06/03 06:28:30;;;;;;;7.03;6.40;;;20.00;99.90;;;;;;5022736;28;20285;-78
2021/06/03 06:30:57;;;;;;;6.77;6.07;;;20.10;99.60;;;;;;5022680;28;20210;-78
2021/06/03 06:33:23;;;;;;;8.13;6.93;;;20.20;99.60;;;;;;5022447;28;20485;-78
2021/06/03 06:35:51;;;;;;;7.17;6.57;;;20.20;99.30;;;;;;5021957;28;20454;-78
2021/06/03 06:38:19;;;;;;;8.53;6.93;;;20.20;99.40;;;;;;5021342;28;20530;-77
2021/06/03 06:40:47;;;;;;;7.47;6.63;;;20.20;99.80;;;;;;5019895;28;20450;-78
2021/06/03 06:43:13;;;;;;;11.13;6.67;;;20.20;99.80;;;;;;5020347;28;20453;-78
2021/06/03 06:45:40;;;;;;;7.05;6.35;;;20.10;99.90;;;;;;5020081;28;20462;-78
2021/06/03 06:48:07;;;;;;;7.40;6.77;;;20.10;99.90;;;;;;5019889;28;20337;-77
2021/06/03 06:50:35;;;;;;;7.47;6.60;;;20.10;99.90;;;;;;5019950;28;20541;-77
2021/06/03 06:53:02;;;;;;;7.07;6.43;;;20.10;99.90;;;;;;5019446;28;20986;-78
2021/06/03 06:55:29;;;;;;;7.90;6.30;;;20.10;99.90;;;;;;5020181;28;20508;-78
2021/06/03 06:57:55;;;;;;;8.00;7.20;;;20.10;99.90;;;;;;5019850;28;20942;-78
2021/06/03 07:00:23;;;;;;;6.90;6.20;;;20.10;99.90;;;;;;5020393;28;20539;-78
2021/06/03 07:02:50;;;;;;;7.70;6.50;;;20.10;99.90;;;;;;5018767;28;20341;-78
2021/06/03 07:05:17;;;;;;;7.23;6.53;;;20.20;99.90;;;;;;5017689;28;20480;-78
2021/06/03 07:07:44;;;;;;;7.83;7.13;;;20.20;99.90;;;;;;5018072;28;20615;-78
2021/06/03 07:10:12;;;;;;;7.30;6.60;;;20.20;99.90;;;;;;5018089;28;20539;-78
2021/06/03 07:12:40;;;;;;;7.50;6.80;;;20.10;99.90;;;;;;5018892;28;20467;-78
2021/06/03 07:15:09;;;;;;;7.82;6.70;;;20.00;99.90;;;;;;5018967;28;20540;-77
2021/06/03 07:17:35;;;;;;;6.82;6.15;;;19.90;99.90;;;;;;5019126;28;20238;-78
2021/06/03 07:20:03;;;;;;;7.72;6.70;;;19.90;99.90;;;;;;5018150;28;20206;-78
2021/06/03 07:22:29;;;;;;;8.90;6.80;;;19.90;99.90;;;;;;5018889;28;20229;-78
2021/06/03 07:24:56;;;;;;;6.83;6.23;;;19.90;99.90;;;;;;5018862;28;20653;-78
2021/06/03 07:27:23;;;;;;;6.97;6.25;;;19.90;99.90;;;;;;5017785;28;20488;-78
2021/06/03 07:29:50;;;;;;;7.30;6.57;;;20.00;99.90;;;;;;5018410;28;20705;-78
2021/06/03 07:32:17;;;;;;;8.27;7.17;;;20.10;99.90;;;;;;5018363;28;20259;-78
2021/06/03 07:34:43;;;;;;;7.60;6.90;;;20.20;99.90;;;;;;5018956;28;20475;-78
2021/06/03 07:37:09;;;;;;;7.53;6.83;;;20.30;99.90;;;;;;5018847;28;20289;-78
2021/06/03 07:39:35;;;;;;;9.50;7.33;;;20.40;99.90;;;;;;5018592;28;20943;-78
2021/06/03 07:42:02;;;;;;;7.83;7.03;;;20.50;99.90;;;;;;5018717;28;20561;-78
2021/06/03 07:44:30;;;;;;;7.93;7.13;;;20.80;99.90;;;;;;5019539;28;20542;-78
2021/06/03 07:46:56;;;;;;;8.07;7.37;;;21.10;99.90;;;;;;5019769;28;20652;-78
2021/06/03 07:49:22;;;;;;;7.43;6.73;;;21.40;99.90;;;;;;5019324;28;20475;-78
2021/06/03 07:51:49;;;;;;;7.00;6.40;;;21.70;99.30;;;;;;5017838;28;20557;-78
2021/06/03 07:54:15;;;;;;;7.77;7.00;;;21.80;99.00;;;;;;5019884;28;20450;-78
2021/06/03 07:56:41;;;;;;;6.93;6.23;;;22.10;98.60;;;;;;5021129;28;20458;-78
2021/06/03 07:59:08;;;;;;;6.80;6.20;;;22.60;97.30;;;;;;5020043;28;20472;-78
2021/06/03 08:01:35;;;;;;;7.80;6.03;;;22.80;96.80;;;;;;5019507;28;20481;-77
2021/06/03 08:04:02;;;;;;;6.83;6.10;;;23.00;96.20;;;;;;5020909;28;20451;-78
2021/06/03 08:06:28;;;;;;;6.33;5.73;;;22.90;96.10;;;;;;5020826;28;20476;-77
2021/06/03 08:08:54;;;;;;;6.80;5.83;;;22.90;96.30;;;;;;5019820;28;20444;-78
2021/06/03 08:11:21;;;;;;;6.43;5.93;;;23.10;96.30;;;;;;5019665;28;20985;-78
2021/06/03 08:13:47;;;;;;;6.57;5.53;;;23.40;96.10;;;;;;5019710;28;21077;-78
2021/06/03 08:16:14;;;;;;;6.43;5.83;;;24.00;95.10;;;;;;5021018;28;20869;-79
2021/06/03 08:18:41;;;;;;;6.93;5.87;;;25.00;93.70;;;;;;5020819;28;20494;-79
2021/06/03 08:21:09;;;;;;;5.40;5.00;;;25.80;91.30;;;;;;5020642;28;20531;-79
2021/06/03 08:23:36;;;;;;;5.90;5.43;;;26.80;88.20;;;;;;5021874;28;20487;-79
2021/06/03 08:26:03;;;;;;;5.90;5.30;;;27.90;83.00;;;;;;5023044;28;20533;-79
2021/06/03 08:28:30;;;;;;;6.00;5.40;;;28.50;78.40;;;;;;5021959;28;20576;-78
2021/06/03 08:30:59;;;;;;;5.50;5.10;;;29.40;73.70;;;;;;5021022;28;20543;-78
2021/06/03 08:33:26;;;;;;;6.23;5.73;;;29.40;70.50;;;;;;5021926;28;20554;-78
2021/06/03 08:35:54;;;;;;;5.60;5.20;;;29.30;70.10;;;;;;5021965;28;20483;-79
2021/06/03 08:38:21;;;;;;;6.27;5.77;;;30.00;68.80;;;;;;5022812;28;20511;-78
2021/06/03 08:40:51;;;;;;;5.40;5.00;;;31.10;64.50;;;;;;5022414;28;20506;-78
2021/06/03 08:43:18;;;;;;;5.53;4.80;;;32.30;59.70;;;;;;5020464;28;20457;-78
2021/06/03 08:45:46;;;;;;;4.67;4.37;;;33.00;56.50;;;;;;5017932;28;21015;-78
2021/06/03 08:48:14;;;;;;;4.70;4.30;;;33.50;55.20;;;;;;5019447;28;20581;-79
2021/06/03 08:50:43;;;;;;;5.37;4.87;;;34.40;52.60;;;;;;5019145;28;20452;-79
2021/06/03 08:53:11;;;;;;;4.57;4.17;;;35.40;49.70;;;;;;5018807;28;20443;-79
2021/06/03 08:58:24;;;;;;;4.87;4.40;;;38.40;43.00;;;;;;5019675;28;20474;-79
2021/06/03 09:00:51;;;;;;;5.07;4.67;;;39.90;39.40;;;;;;5019866;28;20484;-79
2021/06/03 09:03:18;;;;;;;4.97;4.67;;;40.60;37.70;;;;;;5016880;28;20450;-77
2021/06/03 09:05:45;;;;;;;5.10;4.80;;;41.40;36.30;;;;;;5016633;28;20440;-77
2021/06/03 09:08:21;;;;;;;4.83;4.53;;;41.80;35.10;;;;;;5016200;28;20483;-77
2021/06/03 09:10:50;;;;;;;4.90;4.60;;;42.00;34.40;;;;;;5016201;28;20530;-77
2021/06/03 09:13:18;;;;;;;4.83;4.53;;;42.60;33.60;;;;;;5016850;28;20511;-77
2021/06/03 09:15:46;;;;;;;5.00;4.70;;;42.80;32.60;;;;;;5016226;28;20444;-77
2021/06/03 09:18:13;;;;;;;6.30;5.80;;;42.90;32.80;;;;;;5016726;28;21076;-77
2021/06/03 09:20:41;;;;;;;5.47;5.17;;;42.90;32.30;;;;;;5015934;28;20448;-77
2021/06/03 09:23:26;;;;;;;4.53;4.23;;;42.80;32.20;;;;;;5016636;28;20543;-77
2021/06/03 09:25:53;;;;;;;5.10;4.60;;;42.90;31.70;;;;;;5015845;28;20870;-77
2021/06/03 09:28:26;;;;;;;4.40;4.13;;;42.90;32.00;;;;;;5016561;28;20546;-77
2021/06/03 09:30:59;;;;;;;4.63;4.33;;;42.90;31.50;;;;;;5016082;28;20534;-78
2021/06/03 09:33:46;;;;;;;3.87;3.67;;;42.70;31.30;;;;;;5017257;28;20495;-78
2021/06/03 09:36:14;;;;;;;4.03;3.73;;;43.50;30.30;;;;;;5018767;28;20455;-81
2021/06/03 09:39:04;;;;;;;4.27;4.07;;;44.30;28.10;;;;;;5039851;28;20443;-76
2021/06/03 09:41:31;;;;;;;4.30;4.00;;;43.70;28.80;;;;;;5033697;28;20497;-75
2021/06/03 09:44:08;;;;;;;4.33;4.00;;;43.80;29.40;;;;;;5033967;28;20446;-72
2021/06/03 09:46:41;;;;;;;4.47;4.17;;;43.50;29.50;;;;;;5033299;28;20455;-77
2021/06/03 09:49:15;;;;;;;5.37;4.47;;;41.70;30.60;;;;;;5032752;28;20533;-77
2021/06/03 09:51:44;;;;;;;4.13;3.93;;;40.00;32.20;;;;;;5031769;28;20873;-76
2021/06/03 09:54:13;;;;;;;4.17;3.87;;;39.10;34.70;;;;;;5033121;28;20447;-76
2021/06/03 09:56:41;;;;;;;4.77;4.07;;;37.60;36.10;;;;;;5032834;28;20529;-76
2021/06/03 09:59:09;;;;;;;4.00;3.70;;;36.10;38.10;;;;;;5032347;28;20884;-76
2021/06/03 10:01:48;;;;;;;4.00;3.70;;;35.40;39.50;;;;;;5035362;28;20474;-78
2021/06/03 10:04:16;;;;;;;4.03;3.63;;;36.00;39.20;;;;;;5038808;28;20466;-78
2021/06/03 10:07:06;;;;;;;3.77;3.47;;;36.80;38.40;;;;;;5039720;28;20533;-78
2021/06/03 10:09:55;;;;;;;3.70;3.50;;;38.10;37.30;;;;;;5038945;28;20473;-78
2021/06/03 10:12:42;;;;;;;4.17;3.87;;;37.80;36.30;;;;;;5036070;28;20557;-78
2021/06/03 10:15:42;;;;;;;3.70;3.40;;;38.10;36.70;;;;;;5037447;28;20810;-78
2021/06/03 10:18:10;;;;;;;3.80;3.50;;;38.20;35.50;;;;;;5028975;28;20451;-75
2021/06/03 10:20:39;;;;;;;6.80;3.43;;;37.40;36.90;;;;;;5032118;28;20810;-76
2021/06/03 10:23:07;;;;;;;3.40;3.20;;;37.10;37.80;;;;;;5032100;28;20482;-76
2021/06/03 10:25:36;;;;;;;3.73;3.43;;;36.70;38.30;;;;;;5032230;28;20465;-75
2021/06/03 10:28:05;;;;;;;3.50;3.30;;;35.70;38.60;;;;;;5032511;28;20509;-81
2021/06/03 10:30:35;;;;;;;3.63;3.33;;;34.60;39.30;;;;;;5033949;28;20866;-76
2021/06/03 10:33:04;;;;;;;3.83;3.00;;;34.00;41.30;;;;;;5034965;28;20536;-78
2021/06/03 10:35:32;;;;;;;3.63;3.33;;;33.60;41.90;;;;;;5035300;28;20983;-79
2021/06/03 10:37:59;;;;;;;3.33;3.03;;;33.50;42.50;;;;;;5036118;28;20569;-79
2021/06/03 10:40:28;;;;;;;3.50;3.20;;;33.20;43.30;;;;;;5034491;28;20466;-78
2021/06/03 10:42:58;;;;;;;2.80;2.60;;;33.00;43.90;;;;;;5033411;28;20944;-78
2021/06/03 10:45:26;;;;;;;4.30;3.33;;;32.60;43.70;;;;;;5034272;28;20445;-77
2021/06/03 10:47:54;;;;;;;2.90;2.70;;;32.30;44.00;;;;;;5034495;28;20484;-78
2021/06/03 10:50:24;;;;;;;2.70;2.50;;;31.80;44.40;;;;;;5032981;28;20808;-76
2021/06/03 10:52:51;;;;;;;2.47;2.30;;;31.10;44.80;;;;;;5033037;28;20471;-77
2021/06/03 10:55:28;;;;;;;2.50;2.30;;;30.70;45.60;;;;;;5032555;28;20454;-77
2021/06/03 10:57:58;;;;;;;2.50;2.30;;;30.40;45.70;;;;;;5032659;28;20808;-77
2021/06/03 11:00:35;;;;;;;4.20;2.47;;;30.10;46.60;;;;;;5032177;28;20948;-77
2021/06/03 11:03:04;;;;;;;2.37;2.27;;;30.00;48.80;;;;;;5033234;28;20511;-77
2021/06/03 11:05:33;;;;;;;2.63;2.20;;;30.00;48.20;;;;;;5036593;28;20446;-79
2021/06/03 11:08:31;;;;;;;2.90;2.60;;;30.10;48.30;;;;;;5035783;28;20504;-78
2021/06/03 11:11:24;;;;;;;2.90;2.70;;;30.00;48.50;;;;;;5030161;28;20448;-78
2021/06/03 11:14:05;;;;;;;3.00;2.80;;;30.00;48.00;;;;;;5035809;28;20861;-77
2021/06/03 11:16:45;;;;;;;3.00;2.80;;;29.90;47.10;;;;;;5036470;28;20441;-79
2021/06/03 11:19:13;;;;;;;2.60;2.40;;;29.80;47.20;;;;;;5036182;28;20449;-79
2021/06/03 11:21:54;;;;;;;2.90;2.60;;;29.90;47.70;;;;;;5035344;28;20944;-76
2021/06/03 11:24:41;;;;;;;3.27;3.07;;;29.90;48.50;;;;;;5035077;28;20442;-76
2021/06/03 11:27:09;;;;;;;2.97;2.63;;;29.70;49.20;;;;;;5023834;28;20500;-76
2021/06/03 11:29:40;;;;;;;4.13;3.83;;;29.40;50.60;;;;;;5034970;28;20456;-73
2021/06/03 11:32:18;;;;;;;3.27;2.77;;;29.10;49.80;;;;;;5034599;28;20478;-76
2021/06/03 11:34:46;;;;;;;4.00;3.60;;;28.70;51.00;;;;;;5034852;28;20505;-75
2021/06/03 11:37:15;;;;;;;3.70;3.37;;;28.30;51.60;;;;;;5034882;28;20451;-76
2021/06/03 11:39:45;;;;;;;4.10;3.70;;;28.30;53.10;;;;;;5034985;28;20453;-75
2021/06/03 11:42:29;;;;;;;3.57;3.27;;;27.90;57.00;;;;;;5034531;28;20562;-75
2021/06/03 11:45:26;;;;;;;3.37;3.17;;;27.50;58.00;;;;;;5034614;28;20474;-75
2021/06/03 11:48:12;;;;;;;3.70;3.40;;;27.20;58.70;;;;;;5035273;28;20569;-76
2021/06/03 11:50:46;;;;;;;3.90;3.50;;;26.90;61.00;;;;;;5022092;28;20481;-76
2021/06/03 11:53:16;;;;;;;3.50;3.20;;;26.70;61.80;;;;;;5035323;28;20533;-78
2021/06/03 11:55:44;;;;;;;3.70;3.40;;;26.70;63.40;;;;;;5035340;28;20534;-76
2021/06/03 11:58:23;;;;;;;3.40;3.10;;;26.90;63.00;;;;;;5035155;28;20497;-76
2021/06/03 12:00:53;;;;;;;3.97;3.60;;;27.00;62.20;;;;;;5035332;28;20477;-76
2021/06/03 12:03:33;;;;;;;3.67;3.37;;;27.10;62.60;;;;;;5036585;28;20800;-75
2021/06/03 12:06:02;;;;;;;4.00;3.60;;;26.90;64.40;;;;;;5035944;28;20439;-75
2021/06/03 12:08:48;;;;;;;3.87;3.53;;;26.60;64.30;;;;;;5035343;28;20482;-75
2021/06/03 12:11:17;;;;;;;6.50;4.07;;;26.30;66.90;;;;;;5035388;28;20480;-76
2021/06/03 12:13:45;;;;;;;3.60;3.30;;;26.20;67.60;;;;;;5035138;28;20455;-75
2021/06/03 12:16:14;;;;;;;3.80;3.50;;;26.10;67.80;;;;;;5035750;28;20499;-75
2021/06/03 12:18:43;;;;;;;4.67;4.27;;;25.90;70.90;;;;;;5035659;28;20530;-75
2021/06/03 12:21:11;;;;;;;4.70;4.30;;;25.60;70.80;;;;;;5034665;28;21055;-75
2021/06/03 12:23:48;;;;;;;4.60;4.20;;;25.30;76.60;;;;;;5035445;28;20455;-74
2021/06/03 12:26:20;;;;;;;4.90;4.50;;;25.20;77.50;;;;;;5035381;28;20488;-75
2021/06/03 12:28:46;;;;;;;4.20;3.80;;;25.10;80.30;;;;;;5035365;28;20509;-75
2021/06/03 12:31:26;;;;;;;5.97;4.53;;;25.10;84.50;;;;;;5034638;28;20473;-74
2021/06/03 12:33:54;;;;;;;7.67;5.00;;;25.00;89.30;;;;;;5035074;28;20489;-73
2021/06/03 12:36:21;;;;;;;5.53;5.13;;;24.90;95.90;;;;;;5035071;28;20469;-73
2021/06/03 12:38:49;;;;;;;9.73;6.77;;;24.50;99.90;;;;;;5035164;28;20539;-74
2021/06/03 12:41:28;;;;;;;10.73;7.70;;;24.00;99.90;;;;;;5034467;28;20513;-74
2021/06/03 12:43:58;;;;;;;7.30;5.40;;;23.60;99.90;;;;;;5034491;28;20917;-74
2021/06/03 12:46:37;;;;;;;8.10;6.20;;;22.90;99.90;;;;;;5034827;28;20454;-74
2021/06/03 12:49:09;;;;;;;32.03;25.37;;;22.60;99.90;;;;;;5034873;28;20570;-74
2021/06/03 12:51:38;;;;;;;10.40;5.87;;;22.40;99.90;;;;;;5034268;28;20471;-74
2021/06/03 12:54:05;;;;;;;6.70;5.00;;;22.10;99.90;;;;;;5034989;28;20453;-74
2021/06/03 12:56:32;;;;;;;6.80;5.23;;;21.60;99.90;;;;;;5034603;28;20437;-74
2021/06/03 12:58:58;;;;;;;7.93;5.23;;;21.30;99.90;;;;;;5034445;28;20453;-74